createdAt,value
2019-02-27T00:00:49.604Z,93.40
2019-02-27T00:03:18.615Z,93.50
2019-02-27T00:05:46.910Z,93.40
2019-02-27T00:08:16.990Z,93.30
2019-02-27T00:10:45.293Z,93.50
2019-02-27T00:13:13.571Z,93.70
2019-02-27T00:15:41.898Z,93.50
2019-02-27T00:18:10.191Z,93.40
2019-02-27T00:20:57.997Z,93.50
2019-02-27T00:23:26.273Z,93.70
2019-02-27T00:25:54.567Z,94.20
2019-02-27T00:28:23.355Z,94.00
2019-02-27T00:30:52.401Z,93.90
2019-02-27T00:33:25.069Z,93.80
2019-02-27T00:35:52.348Z,94.00
2019-02-27T00:38:22.741Z,93.80
2019-02-27T00:40:53.716Z,93.80
2019-02-27T00:43:22.075Z,93.90
2019-02-27T00:45:50.403Z,94.10
2019-02-27T00:48:20.370Z,93.90
2019-02-27T00:50:48.766Z,93.60
2019-02-27T00:53:18.994Z,93.80
2019-02-27T00:55:50.216Z,93.70
2019-02-27T00:58:18.591Z,93.70
2019-02-27T01:00:46.953Z,93.70
2019-02-27T01:03:15.230Z,93.60
2019-02-27T01:05:43.552Z,93.30
2019-02-27T01:08:11.836Z,93.30
2019-02-27T01:10:40.120Z,93.20
2019-02-27T01:13:08.587Z,93.30
2019-02-27T01:15:36.886Z,93.30
2019-02-27T01:18:05.282Z,93.50
2019-02-27T01:20:33.604Z,93.50
2019-02-27T01:23:01.906Z,93.30
2019-02-27T01:25:30.264Z,93.50
2019-02-27T01:27:58.583Z,93.40
2019-02-27T01:30:26.860Z,93.50
2019-02-27T01:32:55.247Z,93.50
2019-02-27T01:35:23.572Z,93.30
2019-02-27T01:37:51.935Z,93.20
2019-02-27T01:40:20.308Z,93.30
2019-02-27T01:42:48.654Z,93.30
2019-02-27T01:45:20.760Z,93.10
2019-02-27T01:47:46.998Z,93.40
2019-02-27T01:50:34.987Z,93.00
2019-02-27T01:53:07.076Z,93.10
2019-02-27T01:55:34.060Z,93.20
2019-02-27T01:58:02.392Z,93.00
2019-02-27T02:00:30.744Z,93.30
2019-02-27T02:02:59.095Z,93.50
2019-02-27T02:05:27.574Z,93.40
2019-02-27T02:07:55.847Z,93.40
2019-02-27T02:10:28.051Z,93.60
2019-02-27T02:12:57.644Z,93.80
2019-02-27T02:15:40.928Z,93.60
2019-02-27T02:18:18.348Z,93.60
2019-02-27T02:21:01.945Z,93.90
2019-02-27T02:23:52.047Z,93.80
2019-02-27T02:26:52.210Z,93.50
2019-02-27T02:29:52.921Z,93.90
2019-02-27T02:32:42.404Z,93.80
2019-02-27T02:35:15.668Z,93.70
2019-02-27T02:38:03.931Z,93.90
2019-02-27T02:40:50.484Z,93.90
2019-02-27T02:43:24.723Z,93.70
2019-02-27T02:46:26.391Z,93.80
2019-02-27T02:49:08.533Z,93.90
2019-02-27T02:51:45.804Z,93.70
2019-02-27T02:54:52.545Z,93.70
2019-02-27T02:57:35.913Z,93.60
2019-02-27T03:00:24.163Z,93.80
2019-02-27T03:03:13.720Z,93.70
2019-02-27T03:05:43.014Z,93.50
2019-02-27T03:08:34.332Z,93.60
2019-02-27T03:11:18.467Z,93.50
2019-02-27T03:13:59.908Z,93.50
2019-02-27T03:16:41.411Z,93.70
2019-02-27T03:19:28.540Z,93.90
2019-02-27T03:22:22.947Z,94.40
2019-02-27T03:24:57.227Z,94.10
2019-02-27T03:27:43.971Z,94.30
2019-02-27T03:30:33.949Z,94.20
2019-02-27T03:33:23.511Z,94.80
2019-02-27T03:35:51.970Z,94.80
2019-02-27T03:38:24.073Z,94.50
2019-02-27T03:41:28.343Z,94.60
2019-02-27T03:44:20.265Z,94.30
2019-02-27T03:47:18.179Z,94.20
2019-02-27T03:49:58.768Z,94.00
2019-02-27T03:52:42.595Z,94.20
2019-02-27T03:55:33.773Z,93.70
2019-02-27T03:58:21.129Z,94.10
2019-02-27T04:01:09.284Z,93.90
2019-02-27T04:04:06.923Z,94.50
2019-02-27T04:07:07.281Z,94.50
2019-02-27T04:09:35.677Z,94.50
2019-02-27T04:12:04.036Z,94.50
2019-02-27T04:14:40.238Z,95.00
2019-02-27T04:17:07.077Z,94.90
2019-02-27T04:19:38.790Z,95.20
2019-02-27T04:22:04.058Z,95.00
2019-02-27T04:24:32.438Z,95.20
2019-02-27T04:27:00.791Z,95.30
2019-02-27T04:29:29.152Z,95.50
2019-02-27T04:31:57.463Z,95.10
2019-02-27T04:34:25.833Z,94.40
2019-02-27T04:36:54.115Z,94.60
2019-02-27T04:39:22.424Z,94.70
2019-02-27T04:41:51.893Z,94.50
2019-02-27T04:44:20.720Z,94.80
2019-02-27T04:46:49.151Z,94.90
2019-02-27T04:49:17.426Z,95.40
2019-02-27T04:51:48.021Z,95.50
2019-02-27T04:54:15.737Z,95.40
2019-02-27T04:56:44.011Z,95.50
2019-02-27T04:59:12.384Z,95.50
2019-02-27T05:01:40.703Z,96.00
2019-02-27T05:04:09.060Z,95.70
2019-02-27T05:06:37.423Z,95.30
2019-02-27T05:09:06.747Z,95.30
2019-02-27T05:11:35.103Z,95.00
2019-02-27T05:14:03.568Z,94.90
2019-02-27T05:16:31.874Z,94.70
2019-02-27T05:19:03.526Z,95.10
2019-02-27T05:21:30.235Z,94.90
2019-02-27T05:23:58.544Z,94.80
2019-02-27T05:26:27.246Z,94.70
2019-02-27T05:28:56.251Z,94.70
2019-02-27T05:31:24.550Z,95.40
2019-02-27T05:33:52.828Z,95.70
2019-02-27T05:36:21.175Z,95.60
2019-02-27T05:38:49.562Z,95.50
2019-02-27T05:41:17.934Z,95.30
2019-02-27T05:43:48.535Z,95.30
2019-02-27T05:46:16.306Z,95.30
2019-02-27T05:48:44.683Z,95.10
2019-02-27T05:51:12.968Z,95.20
2019-02-27T05:53:41.371Z,94.80
2019-02-27T05:56:09.656Z,95.10
2019-02-27T05:58:37.951Z,95.30
2019-02-27T06:01:06.348Z,94.70
2019-02-27T06:03:34.633Z,94.30
2019-02-27T06:06:02.988Z,94.40
2019-02-27T06:08:35.835Z,94.90
2019-02-27T06:11:10.153Z,94.30
2019-02-27T06:13:39.102Z,93.80
2019-02-27T06:16:09.136Z,94.00
2019-02-27T06:18:37.381Z,94.70
2019-02-27T06:21:05.931Z,94.00
2019-02-27T06:23:35.355Z,94.20
2019-02-27T06:26:04.395Z,94.40
2019-02-27T06:28:33.226Z,94.20
2019-02-27T06:31:02.549Z,94.50
2019-02-27T06:33:31.438Z,94.60
2019-02-27T06:35:59.857Z,94.40
2019-02-27T06:38:28.216Z,94.30
2019-02-27T06:40:59.379Z,94.30
2019-02-27T06:43:27.939Z,94.30
2019-02-27T06:45:56.263Z,94.00
2019-02-27T06:48:24.687Z,94.40
2019-02-27T06:50:58.294Z,94.50
2019-02-27T06:53:27.503Z,94.80
2019-02-27T06:56:02.938Z,94.50
2019-02-27T06:58:28.859Z,94.70
2019-02-27T07:00:58.049Z,94.40
2019-02-27T07:03:29.240Z,94.70
2019-02-27T07:05:56.508Z,94.40
2019-02-27T07:08:24.909Z,94.70
2019-02-27T07:10:57.468Z,94.70
2019-02-27T07:13:23.405Z,94.40
2019-02-27T07:15:51.752Z,94.40
2019-02-27T07:18:20.400Z,94.30
2019-02-27T07:20:48.781Z,94.20
2019-02-27T07:23:22.824Z,94.00
2019-02-27T07:25:47.084Z,93.50
2019-02-27T07:28:15.412Z,93.60
2019-02-27T07:30:43.760Z,93.70
2019-02-27T07:33:12.036Z,93.30
2019-02-27T07:35:41.992Z,93.80
2019-02-27T07:38:10.354Z,94.20
2019-02-27T07:40:42.724Z,94.50
2019-02-27T07:43:08.752Z,94.60
2019-02-27T07:45:37.082Z,95.20
2019-02-27T07:48:05.355Z,95.10
2019-02-27T07:50:33.764Z,95.00
2019-02-27T07:53:02.047Z,95.20
2019-02-27T07:55:30.403Z,94.50
2019-02-27T07:57:59.321Z,94.90
2019-02-27T08:00:27.676Z,94.60
2019-02-27T08:02:55.976Z,94.70
2019-02-27T08:05:28.262Z,95.00
2019-02-27T08:07:54.676Z,94.60
2019-02-27T08:10:24.303Z,94.50
2019-02-27T08:12:55.490Z,94.70
2019-02-27T08:15:21.991Z,94.90
2019-02-27T08:17:50.616Z,94.60
2019-02-27T08:20:20.999Z,95.00
2019-02-27T08:22:49.733Z,95.10
2019-02-27T08:25:18.886Z,95.40
2019-02-27T08:27:47.281Z,94.60
2019-02-27T08:30:25.812Z,94.40
2019-02-27T08:32:54.191Z,94.50
2019-02-27T08:35:22.488Z,94.50
2019-02-27T08:37:50.832Z,94.50
2019-02-27T08:40:24.415Z,93.80
2019-02-27T08:42:49.288Z,94.10
2019-02-27T08:45:20.906Z,93.90
2019-02-27T08:47:49.552Z,93.60
2019-02-27T08:50:21.689Z,93.30
2019-02-27T08:52:51.580Z,93.70
2019-02-27T08:55:22.582Z,93.50
2019-02-27T08:57:55.986Z,92.50
2019-02-27T09:00:27.127Z,92.50
2019-02-27T09:02:55.934Z,92.50
2019-02-27T09:05:24.369Z,92.50
2019-02-27T09:07:52.992Z,92.70
2019-02-27T09:10:27.531Z,92.70
2019-02-27T09:13:04.397Z,92.60
2019-02-27T09:15:23.848Z,92.70
2019-02-27T09:17:52.131Z,93.30
2019-02-27T09:20:21.365Z,92.90
2019-02-27T09:22:49.903Z,93.50
2019-02-27T09:25:18.255Z,93.10
2019-02-27T09:27:46.611Z,92.80
2019-02-27T09:30:16.843Z,92.70
2019-02-27T09:32:45.976Z,92.60
2019-02-27T09:35:14.560Z,91.80
2019-02-27T09:37:42.950Z,91.50
2019-02-27T09:40:17.665Z,90.50
2019-02-27T09:42:46.020Z,90.40
2019-02-27T09:45:28.923Z,90.50
2019-02-27T09:47:59.966Z,91.10
2019-02-27T09:50:32.714Z,90.60
2019-02-27T09:53:03.697Z,90.10
2019-02-27T09:55:31.144Z,88.60
2019-02-27T09:57:59.466Z,88.90
2019-02-27T10:00:34.034Z,87.30
2019-02-27T10:03:05.142Z,83.40
2019-02-27T10:05:36.395Z,81.10
2019-02-27T10:08:03.601Z,80.40
2019-02-27T10:10:32.274Z,74.60
2019-02-27T10:13:03.350Z,65.90
2019-02-27T10:15:30.667Z,63.40
2019-02-27T10:17:59.081Z,60.70
2019-02-27T10:20:27.424Z,56.40
2019-02-27T10:22:55.872Z,56.20
2019-02-27T10:25:24.221Z,56.90
2019-02-27T10:27:52.499Z,59.50
2019-02-27T10:30:20.806Z,57.70
2019-02-27T10:32:49.213Z,55.50
2019-02-27T10:35:17.556Z,56.10
2019-02-27T10:37:50.308Z,54.00
2019-02-27T10:40:21.266Z,53.90
2019-02-27T10:42:50.423Z,51.80
2019-02-27T10:45:19.720Z,48.10
2019-02-27T10:47:48.257Z,50.00
2019-02-27T10:50:16.693Z,50.00
2019-02-27T10:52:45.056Z,49.40
2019-02-27T10:55:21.687Z,50.00
2019-02-27T10:57:50.040Z,49.50
2019-02-27T11:00:20.036Z,49.40
2019-02-27T11:02:48.633Z,50.50
2019-02-27T11:05:17.803Z,51.60
2019-02-27T11:07:46.634Z,51.70
2019-02-27T11:10:15.136Z,52.30
2019-02-27T11:12:43.996Z,47.90
2019-02-27T11:15:14.499Z,47.60
2019-02-27T11:17:42.923Z,48.70
2019-02-27T11:20:12.112Z,46.20
2019-02-27T11:22:40.605Z,44.90
2019-02-27T11:25:11.545Z,46.60
2019-02-27T11:27:39.847Z,46.50
2019-02-27T11:30:23.232Z,47.40
2019-02-27T11:32:51.586Z,48.70
2019-02-27T11:35:22.126Z,51.20
2019-02-27T11:37:49.951Z,53.00
2019-02-27T11:40:20.379Z,52.90
2019-02-27T11:42:48.733Z,52.60
2019-02-27T11:45:17.577Z,52.20
2019-02-27T11:47:48.060Z,50.60
2019-02-27T11:50:19.307Z,49.50
2019-02-27T11:52:49.091Z,48.70
2019-02-27T11:55:21.706Z,49.70
2019-02-27T11:57:50.068Z,49.70
2019-02-27T12:00:28.164Z,50.30
2019-02-27T12:02:56.822Z,49.70
2019-02-27T12:05:30.269Z,50.80
2019-02-27T12:07:56.046Z,51.60
2019-02-27T12:10:32.194Z,50.50
2019-02-27T12:13:01.390Z,49.70
2019-02-27T12:15:29.987Z,49.90
2019-02-27T12:18:17.739Z,49.40
2019-02-27T12:20:46.205Z,49.70
2019-02-27T12:23:14.569Z,50.00
2019-02-27T12:25:42.953Z,49.10
2019-02-27T12:28:11.303Z,49.20
2019-02-27T12:30:39.579Z,48.10
2019-02-27T12:33:07.978Z,47.60
2019-02-27T12:35:37.001Z,47.30
2019-02-27T12:38:08.215Z,45.60
2019-02-27T12:40:36.020Z,44.80
2019-02-27T12:43:04.339Z,44.70
2019-02-27T12:45:32.639Z,43.40
2019-02-27T12:48:01.011Z,42.40
2019-02-27T12:50:31.431Z,41.20
2019-02-27T12:53:00.069Z,40.80
2019-02-27T12:55:28.402Z,41.90
2019-02-27T12:57:56.762Z,43.10
2019-02-27T13:00:28.301Z,43.70
2019-02-27T13:02:58.822Z,42.10
2019-02-27T13:05:27.556Z,41.40
2019-02-27T13:07:55.886Z,41.70
2019-02-27T13:10:32.978Z,42.10
2019-02-27T13:12:58.043Z,41.10
2019-02-27T13:15:28.635Z,40.60
2019-02-27T13:17:57.972Z,39.40
2019-02-27T13:20:29.118Z,40.50
2019-02-27T13:22:57.454Z,41.50
2019-02-27T13:25:25.946Z,42.50
2019-02-27T13:28:14.665Z,42.90
2019-02-27T13:30:43.986Z,42.60
2019-02-27T13:33:12.351Z,42.30
2019-02-27T13:35:40.727Z,40.70
2019-02-27T13:38:09.175Z,41.30
2019-02-27T13:40:37.581Z,42.70
2019-02-27T13:43:05.931Z,42.00
2019-02-27T13:45:34.339Z,42.60
2019-02-27T13:48:05.816Z,40.30
2019-02-27T13:50:32.758Z,40.00
2019-02-27T13:53:01.115Z,39.30
2019-02-27T13:55:29.417Z,38.50
2019-02-27T13:57:59.761Z,38.40
2019-02-27T14:00:29.468Z,39.00
2019-02-27T14:02:57.819Z,39.30
2019-02-27T14:05:26.267Z,38.90
2019-02-27T14:07:58.461Z,38.20
2019-02-27T14:10:27.275Z,38.90
2019-02-27T14:12:55.571Z,40.00
2019-02-27T14:15:26.904Z,39.50
2019-02-27T14:17:54.081Z,37.50
2019-02-27T14:20:26.815Z,37.80
2019-02-27T14:23:05.599Z,40.40
2019-02-27T14:25:37.405Z,39.70
2019-02-27T14:28:05.790Z,38.40
2019-02-27T14:30:40.279Z,38.60
2019-02-27T14:33:08.559Z,39.30
2019-02-27T14:35:36.922Z,40.10
2019-02-27T14:38:05.292Z,39.30
2019-02-27T14:40:40.015Z,39.00
2019-02-27T14:43:07.544Z,37.70
2019-02-27T14:45:39.856Z,37.20
2019-02-27T14:48:06.019Z,38.10
2019-02-27T14:50:34.818Z,39.90
2019-02-27T14:53:03.316Z,40.00
2019-02-27T14:55:31.662Z,40.20
2019-02-27T14:57:59.984Z,39.60
2019-02-27T15:00:40.072Z,40.50
2019-02-27T15:03:06.794Z,40.40
2019-02-27T15:05:36.823Z,42.00
2019-02-27T15:08:05.167Z,42.30
2019-02-27T15:10:33.575Z,42.40
2019-02-27T15:13:01.934Z,42.60
2019-02-27T15:15:33.555Z,42.30
2019-02-27T15:18:01.893Z,43.00
2019-02-27T15:20:31.935Z,45.60
2019-02-27T15:23:00.412Z,45.60
2019-02-27T15:25:28.818Z,45.70
2019-02-27T15:27:58.700Z,46.10
2019-02-27T15:30:29.211Z,46.90
2019-02-27T15:32:57.575Z,47.10
2019-02-27T15:35:25.908Z,48.10
2019-02-27T15:37:54.354Z,48.80
2019-02-27T15:40:29.682Z,49.50
2019-02-27T15:42:56.887Z,50.10
2019-02-27T15:45:26.309Z,50.60
2019-02-27T15:47:54.643Z,50.90
2019-02-27T15:50:31.701Z,51.40
2019-02-27T15:53:00.083Z,51.90
2019-02-27T15:55:32.969Z,53.10
2019-02-27T15:57:58.391Z,54.40
2019-02-27T16:00:27.527Z,55.50
2019-02-27T16:02:55.951Z,55.90
2019-02-27T16:05:30.019Z,56.30
2019-02-27T16:07:54.351Z,57.20
2019-02-27T16:10:26.613Z,58.40
2019-02-27T16:12:59.829Z,59.30
2019-02-27T16:15:24.996Z,59.50
2019-02-27T16:17:53.271Z,59.90
2019-02-27T16:20:25.377Z,60.00
2019-02-27T16:22:53.786Z,60.60
2019-02-27T16:25:23.278Z,60.40
2019-02-27T16:27:54.672Z,60.90
2019-02-27T16:30:31.727Z,61.30
2019-02-27T16:32:58.101Z,61.30
2019-02-27T16:35:26.452Z,61.90
2019-02-27T16:37:57.614Z,61.60
2019-02-27T16:40:27.152Z,62.00
2019-02-27T16:42:55.506Z,62.00
2019-02-27T16:45:32.162Z,62.00
2019-02-27T16:47:57.232Z,62.30
2019-02-27T16:50:28.157Z,62.90
2019-02-27T16:52:56.684Z,63.80
2019-02-27T16:55:26.375Z,63.40
2019-02-27T16:57:57.501Z,63.40
2019-02-27T17:00:29.983Z,63.70
2019-02-27T17:02:58.332Z,63.80
2019-02-27T17:05:26.687Z,64.30
2019-02-27T17:08:00.318Z,64.60
2019-02-27T17:10:29.400Z,64.60
2019-02-27T17:12:57.955Z,65.00
2019-02-27T17:15:26.347Z,65.00
2019-02-27T17:17:54.629Z,65.30
2019-02-27T17:20:24.662Z,65.30
2019-02-27T17:22:53.057Z,65.80
2019-02-27T17:25:21.475Z,65.90
2019-02-27T17:27:51.218Z,66.30
2019-02-27T17:30:25.374Z,67.10
2019-02-27T17:32:53.723Z,67.50
2019-02-27T17:35:23.634Z,67.40
2019-02-27T17:37:52.177Z,67.60
2019-02-27T17:40:20.605Z,67.10
2019-02-27T17:42:53.110Z,66.90
2019-02-27T17:45:25.998Z,66.90
2019-02-27T17:47:54.345Z,66.80
2019-02-27T17:50:22.696Z,67.10
2019-02-27T17:52:51.091Z,67.10
2019-02-27T17:55:19.738Z,67.00
2019-02-27T17:57:48.092Z,67.10
2019-02-27T18:00:40.847Z,67.00
2019-02-27T18:03:09.248Z,67.10
2019-02-27T18:05:37.563Z,67.30
2019-02-27T18:08:05.901Z,67.40
2019-02-27T18:10:37.157Z,67.30
2019-02-27T18:13:04.346Z,67.50
2019-02-27T18:15:32.679Z,67.20
2019-02-27T18:18:00.955Z,67.00
2019-02-27T18:20:29.335Z,67.00
2019-02-27T18:22:59.259Z,67.70
2019-02-27T18:25:27.561Z,67.70
2019-02-27T18:27:58.517Z,68.00
2019-02-27T18:30:25.952Z,68.00
2019-02-27T18:33:04.777Z,67.50
2019-02-27T18:35:28.672Z,66.90
2019-02-27T18:37:55.091Z,66.70
2019-02-27T18:40:23.452Z,67.10
2019-02-27T18:42:55.319Z,67.30
2019-02-27T18:45:25.063Z,67.30
2019-02-27T18:47:59.025Z,68.20
2019-02-27T18:50:27.666Z,68.70
2019-02-27T18:52:57.003Z,69.00
2019-02-27T18:55:29.480Z,68.90
2019-02-27T18:57:58.252Z,69.10
2019-02-27T19:00:27.952Z,69.10
2019-02-27T19:03:02.557Z,69.10
2019-02-27T19:05:31.111Z,68.50
2019-02-27T19:07:59.575Z,68.70
2019-02-27T19:10:29.640Z,68.50
2019-02-27T19:13:00.022Z,69.20
2019-02-27T19:15:28.130Z,68.60
2019-02-27T19:17:56.486Z,69.00
2019-02-27T19:20:30.828Z,69.30
2019-02-27T19:23:00.414Z,69.60
2019-02-27T19:25:34.097Z,70.00
2019-02-27T19:27:58.955Z,70.50
2019-02-27T19:30:27.579Z,70.80
2019-02-27T19:33:01.530Z,71.10
2019-02-27T19:35:25.975Z,71.40
2019-02-27T19:38:00.128Z,71.60
2019-02-27T19:40:30.371Z,71.60
2019-02-27T19:43:00.690Z,71.90
2019-02-27T19:45:29.188Z,72.00
2019-02-27T19:48:15.705Z,72.00
2019-02-27T19:50:46.299Z,72.00
2019-02-27T19:53:16.846Z,72.10
2019-02-27T19:55:45.123Z,72.30
2019-02-27T19:58:17.232Z,72.40
2019-02-27T20:00:48.512Z,72.50
2019-02-27T20:03:14.333Z,72.70
2019-02-27T20:05:43.440Z,72.80
2019-02-27T20:08:16.363Z,72.80
2019-02-27T20:10:46.719Z,72.90
2019-02-27T20:13:15.016Z,73.00
2019-02-27T20:15:46.879Z,73.20
2019-02-27T20:18:15.244Z,73.60
2019-02-27T20:20:43.547Z,74.00
2019-02-27T20:23:14.488Z,74.70
2019-02-27T20:25:44.206Z,74.20
2019-02-27T20:28:12.842Z,74.40
2019-02-27T20:30:41.766Z,74.40
2019-02-27T20:33:10.108Z,74.40
2019-02-27T20:35:38.463Z,74.50
2019-02-27T20:38:06.818Z,74.60
2019-02-27T20:40:35.269Z,74.60
2019-02-27T20:43:03.624Z,74.90
2019-02-27T20:45:39.995Z,74.90
2019-02-27T20:48:07.496Z,74.90
2019-02-27T20:50:41.483Z,74.90
2019-02-27T20:53:12.036Z,75.10
2019-02-27T20:55:40.439Z,74.70
2019-02-27T20:58:08.863Z,75.20
2019-02-27T21:00:37.331Z,75.20
2019-02-27T21:03:05.670Z,75.50
2019-02-27T21:05:34.161Z,75.90
2019-02-27T21:08:02.734Z,75.70
2019-02-27T21:10:32.845Z,75.70
2019-02-27T21:13:01.340Z,75.80
2019-02-27T21:15:32.550Z,75.90
2019-02-27T21:17:59.776Z,76.10
2019-02-27T21:20:33.200Z,76.10
2019-02-27T21:23:01.685Z,76.20
2019-02-27T21:25:30.404Z,76.30
2019-02-27T21:27:58.807Z,76.30
2019-02-27T21:30:33.891Z,76.20
2019-02-27T21:33:12.108Z,76.10
2019-02-27T21:36:00.135Z,76.10
2019-02-27T21:38:28.725Z,76.30
2019-02-27T21:41:19.832Z,76.30
2019-02-27T21:43:40.054Z,76.40
2019-02-27T21:46:11.761Z,77.60
2019-02-27T21:48:38.499Z,77.30
2019-02-27T21:51:06.851Z,77.50
2019-02-27T21:53:35.171Z,77.80
2019-02-27T21:56:03.515Z,78.10
2019-02-27T21:58:32.830Z,78.10
2019-02-27T22:01:01.413Z,77.90
2019-02-27T22:03:29.885Z,77.90
2019-02-27T22:05:58.187Z,77.90
2019-02-27T22:08:26.488Z,77.80
2019-02-27T22:10:54.778Z,78.00
2019-02-27T22:13:29.138Z,77.80
2019-02-27T22:15:55.811Z,77.60
2019-02-27T22:18:23.093Z,77.50
2019-02-27T22:20:51.555Z,77.50
2019-02-27T22:23:19.868Z,77.50
2019-02-27T22:25:48.215Z,77.30
2019-02-27T22:28:17.310Z,77.10
2019-02-27T22:30:46.532Z,77.00
2019-02-27T22:33:14.821Z,76.90
2019-02-27T22:35:43.216Z,76.90
2019-02-27T22:38:11.604Z,76.80
2019-02-27T22:40:39.900Z,76.60
2019-02-27T22:43:08.177Z,76.40
2019-02-27T22:45:40.511Z,76.10
2019-02-27T22:48:06.487Z,76.10
2019-02-27T22:50:34.771Z,76.00
2019-02-27T22:53:03.082Z,76.00
2019-02-27T22:55:31.432Z,76.00
2019-02-27T22:57:59.708Z,75.90
2019-02-27T23:00:48.852Z,76.00
2019-02-27T23:03:17.123Z,75.70
2019-02-27T23:05:45.483Z,76.20
2019-02-27T23:08:13.867Z,76.10
2019-02-27T23:10:42.148Z,75.70
2019-02-27T23:13:12.690Z,75.80
2019-02-27T23:15:40.544Z,75.70
2019-02-27T23:18:08.908Z,75.60
2019-02-27T23:20:37.245Z,75.40
2019-02-27T23:23:05.651Z,75.50
2019-02-27T23:25:33.927Z,75.40
2019-02-27T23:28:02.220Z,75.30
2019-02-27T23:30:30.678Z,75.30
2019-02-27T23:32:59.448Z,75.20
2019-02-27T23:35:29.031Z,75.00
2019-02-27T23:38:02.955Z,75.10
2019-02-27T23:40:27.731Z,74.80
2019-02-27T23:42:56.016Z,74.60
2019-02-27T23:45:24.318Z,74.40
2019-02-27T23:47:52.663Z,74.50
2019-02-27T23:50:21.047Z,74.40
2019-02-27T23:52:49.454Z,74.20
2019-02-27T23:55:17.733Z,74.20
2019-02-27T23:57:47.187Z,74.40
